sensor_id;sensor_type;location;lat;lon;timestamp;P1;durP1;ratioP1;P2;durP2;ratioP2
19879;SDS011;10102;50.828;4.416;2023-04-25T00:01:29;18.58;;;4.03;;
19879;SDS011;10102;50.828;4.416;2023-04-25T00:03:55;21.15;;;4.20;;
19879;SDS011;10102;50.828;4.416;2023-04-25T00:06:22;18.38;;;3.78;;
19879;SDS011;10102;50.828;4.416;2023-04-25T00:08:51;15.25;;;3.92;;
19879;SDS011;10102;50.828;4.416;2023-04-25T00:11:18;14.30;;;4.07;;
19879;SDS011;10102;50.828;4.416;2023-04-25T00:13:44;14.90;;;3.50;;
19879;SDS011;10102;50.828;4.416;2023-04-25T00:16:11;13.88;;;3.33;;
19879;SDS011;10102;50.828;4.416;2023-04-25T00:18:40;17.92;;;3.70;;
19879;SDS011;10102;50.828;4.416;2023-04-25T00:21:07;10.98;;;3.83;;
19879;SDS011;10102;50.828;4.416;2023-04-25T00:23:33;14.45;;;3.10;;
19879;SDS011;10102;50.828;4.416;2023-04-25T00:26:00;20.58;;;3.40;;
19879;SDS011;10102;50.828;4.416;2023-04-25T00:28:26;17.02;;;4.10;;
19879;SDS011;10102;50.828;4.416;2023-04-25T00:30:52;15.73;;;3.60;;
19879;SDS011;10102;50.828;4.416;2023-04-25T00:33:18;19.27;;;4.22;;
19879;SDS011;10102;50.828;4.416;2023-04-25T00:35:43;10.68;;;3.42;;
19879;SDS011;10102;50.828;4.416;2023-04-25T00:38:09;13.95;;;3.63;;
19879;SDS011;10102;50.828;4.416;2023-04-25T00:40:35;19.15;;;4.63;;
19879;SDS011;10102;50.828;4.416;2023-04-25T00:43:01;14.13;;;3.72;;
19879;SDS011;10102;50.828;4.416;2023-04-25T00:45:29;11.23;;;3.78;;
19879;SDS011;10102;50.828;4.416;2023-04-25T00:47:55;17.48;;;4.43;;
19879;SDS011;10102;50.828;4.416;2023-04-25T00:50:21;15.60;;;3.80;;
19879;SDS011;10102;50.828;4.416;2023-04-25T00:52:47;14.32;;;3.55;;
19879;SDS011;10102;50.828;4.416;2023-04-25T00:55:13;14.77;;;4.75;;
19879;SDS011;10102;50.828;4.416;2023-04-25T00:57:40;13.32;;;4.13;;
19879;SDS011;10102;50.828;4.416;2023-04-25T01:00:07;14.65;;;4.13;;
19879;SDS011;10102;50.828;4.416;2023-04-25T01:02:34;13.55;;;3.75;;
19879;SDS011;10102;50.828;4.416;2023-04-25T01:05:01;13.10;;;3.58;;
19879;SDS011;10102;50.828;4.416;2023-04-25T01:07:27;19.02;;;4.32;;
19879;SDS011;10102;50.828;4.416;2023-04-25T01:09:53;12.13;;;4.20;;
19879;SDS011;10102;50.828;4.416;2023-04-25T01:12:19;8.38;;;3.90;;
19879;SDS011;10102;50.828;4.416;2023-04-25T01:14:46;19.50;;;4.18;;
19879;SDS011;10102;50.828;4.416;2023-04-25T01:17:12;14.68;;;4.38;;
19879;SDS011;10102;50.828;4.416;2023-04-25T01:19:38;17.52;;;5.10;;
19879;SDS011;10102;50.828;4.416;2023-04-25T01:22:04;19.42;;;4.57;;
19879;SDS011;10102;50.828;4.416;2023-04-25T01:24:33;18.40;;;5.20;;
19879;SDS011;10102;50.828;4.416;2023-04-25T01:27:00;13.50;;;4.65;;
19879;SDS011;10102;50.828;4.416;2023-04-25T01:29:27;26.40;;;4.97;;
19879;SDS011;10102;50.828;4.416;2023-04-25T01:31:53;26.90;;;4.93;;
19879;SDS011;10102;50.828;4.416;2023-04-25T01:34:19;15.35;;;4.53;;
19879;SDS011;10102;50.828;4.416;2023-04-25T01:36:46;25.85;;;4.80;;
19879;SDS011;10102;50.828;4.416;2023-04-25T01:39:14;18.05;;;4.47;;
19879;SDS011;10102;50.828;4.416;2023-04-25T01:41:40;21.55;;;5.28;;
19879;SDS011;10102;50.828;4.416;2023-04-25T01:44:06;17.17;;;4.68;;
19879;SDS011;10102;50.828;4.416;2023-04-25T01:46:32;19.30;;;4.60;;
19879;SDS011;10102;50.828;4.416;2023-04-25T01:48:59;19.20;;;4.88;;
19879;SDS011;10102;50.828;4.416;2023-04-25T01:51:25;16.08;;;4.30;;
19879;SDS011;10102;50.828;4.416;2023-04-25T01:53:51;13.43;;;4.75;;
19879;SDS011;10102;50.828;4.416;2023-04-25T01:56:18;16.52;;;4.22;;
19879;SDS011;10102;50.828;4.416;2023-04-25T01:58:44;15.70;;;4.35;;
19879;SDS011;10102;50.828;4.416;2023-04-25T02:01:10;15.75;;;4.50;;
19879;SDS011;10102;50.828;4.416;2023-04-25T02:03:36;16.73;;;3.88;;
19879;SDS011;10102;50.828;4.416;2023-04-25T02:06:02;11.40;;;4.32;;
19879;SDS011;10102;50.828;4.416;2023-04-25T02:08:28;16.40;;;4.47;;
19879;SDS011;10102;50.828;4.416;2023-04-25T02:10:55;14.65;;;4.93;;
19879;SDS011;10102;50.828;4.416;2023-04-25T02:13:21;16.90;;;3.92;;
19879;SDS011;10102;50.828;4.416;2023-04-25T02:15:47;18.45;;;4.70;;
19879;SDS011;10102;50.828;4.416;2023-04-25T02:18:13;20.25;;;4.70;;
19879;SDS011;10102;50.828;4.416;2023-04-25T02:20:41;13.40;;;4.07;;
19879;SDS011;10102;50.828;4.416;2023-04-25T02:23:07;16.67;;;4.70;;
19879;SDS011;10102;50.828;4.416;2023-04-25T02:25:33;17.33;;;4.38;;
19879;SDS011;10102;50.828;4.416;2023-04-25T02:27:58;20.10;;;4.90;;
19879;SDS011;10102;50.828;4.416;2023-04-25T02:30:25;18.02;;;4.50;;
19879;SDS011;10102;50.828;4.416;2023-04-25T02:32:51;21.75;;;4.55;;
19879;SDS011;10102;50.828;4.416;2023-04-25T02:35:17;13.07;;;5.15;;
19879;SDS011;10102;50.828;4.416;2023-04-25T02:37:43;10.73;;;4.57;;
19879;SDS011;10102;50.828;4.416;2023-04-25T02:40:09;19.83;;;4.80;;
19879;SDS011;10102;50.828;4.416;2023-04-25T02:42:35;19.98;;;4.72;;
19879;SDS011;10102;50.828;4.416;2023-04-25T02:45:02;18.70;;;4.82;;
19879;SDS011;10102;50.828;4.416;2023-04-25T02:47:28;12.65;;;4.07;;
19879;SDS011;10102;50.828;4.416;2023-04-25T02:49:54;16.45;;;5.38;;
19879;SDS011;10102;50.828;4.416;2023-04-25T02:52:20;22.48;;;5.22;;
19879;SDS011;10102;50.828;4.416;2023-04-25T02:54:46;16.15;;;4.25;;
19879;SDS011;10102;50.828;4.416;2023-04-25T02:57:12;18.27;;;4.68;;
19879;SDS011;10102;50.828;4.416;2023-04-25T02:59:38;17.48;;;4.40;;
19879;SDS011;10102;50.828;4.416;2023-04-25T03:02:04;14.40;;;4.40;;
19879;SDS011;10102;50.828;4.416;2023-04-25T03:04:29;15.95;;;4.50;;
19879;SDS011;10102;50.828;4.416;2023-04-25T03:06:57;17.40;;;4.97;;
19879;SDS011;10102;50.828;4.416;2023-04-25T03:09:23;14.65;;;5.03;;
19879;SDS011;10102;50.828;4.416;2023-04-25T03:11:48;19.75;;;5.28;;
19879;SDS011;10102;50.828;4.416;2023-04-25T03:14:14;20.45;;;4.75;;
19879;SDS011;10102;50.828;4.416;2023-04-25T03:16:40;19.85;;;4.70;;
19879;SDS011;10102;50.828;4.416;2023-04-25T03:19:06;19.60;;;4.63;;
19879;SDS011;10102;50.828;4.416;2023-04-25T03:21:32;16.00;;;5.60;;
19879;SDS011;10102;50.828;4.416;2023-04-25T03:24:00;23.00;;;5.05;;
19879;SDS011;10102;50.828;4.416;2023-04-25T03:26:27;20.92;;;4.68;;
19879;SDS011;10102;50.828;4.416;2023-04-25T03:28:53;17.40;;;4.72;;
19879;SDS011;10102;50.828;4.416;2023-04-25T03:31:18;17.33;;;4.65;;
19879;SDS011;10102;50.828;4.416;2023-04-25T03:33:44;14.48;;;4.50;;
19879;SDS011;10102;50.828;4.416;2023-04-25T03:36:10;15.23;;;4.32;;
19879;SDS011;10102;50.828;4.416;2023-04-25T03:38:36;22.38;;;5.25;;
19879;SDS011;10102;50.828;4.416;2023-04-25T03:41:01;25.58;;;5.05;;
19879;SDS011;10102;50.828;4.416;2023-04-25T03:43:27;16.88;;;3.90;;
19879;SDS011;10102;50.828;4.416;2023-04-25T03:45:53;18.98;;;4.47;;
19879;SDS011;10102;50.828;4.416;2023-04-25T03:48:19;20.00;;;4.55;;
19879;SDS011;10102;50.828;4.416;2023-04-25T03:50:47;18.42;;;4.60;;
19879;SDS011;10102;50.828;4.416;2023-04-25T03:53:13;15.52;;;4.55;;
19879;SDS011;10102;50.828;4.416;2023-04-25T03:55:38;16.40;;;4.70;;
19879;SDS011;10102;50.828;4.416;2023-04-25T03:58:05;19.42;;;5.15;;
19879;SDS011;10102;50.828;4.416;2023-04-25T04:00:31;22.85;;;4.50;;
19879;SDS011;10102;50.828;4.416;2023-04-25T04:02:56;20.40;;;5.22;;
19879;SDS011;10102;50.828;4.416;2023-04-25T04:05:22;15.98;;;4.13;;
19879;SDS011;10102;50.828;4.416;2023-04-25T04:07:48;20.85;;;5.18;;
19879;SDS011;10102;50.828;4.416;2023-04-25T04:10:14;21.52;;;5.35;;
19879;SDS011;10102;50.828;4.416;2023-04-25T04:12:39;18.48;;;5.10;;
19879;SDS011;10102;50.828;4.416;2023-04-25T04:15:06;19.00;;;5.07;;
19879;SDS011;10102;50.828;4.416;2023-04-25T04:17:32;16.45;;;4.95;;
19879;SDS011;10102;50.828;4.416;2023-04-25T04:19:58;20.75;;;5.05;;
19879;SDS011;10102;50.828;4.416;2023-04-25T04:22:24;11.80;;;4.05;;
19879;SDS011;10102;50.828;4.416;2023-04-25T04:24:50;19.63;;;5.07;;
19879;SDS011;10102;50.828;4.416;2023-04-25T04:27:19;20.63;;;4.93;;
19879;SDS011;10102;50.828;4.416;2023-04-25T04:29:46;20.48;;;4.47;;
19879;SDS011;10102;50.828;4.416;2023-04-25T04:32:13;9.00;;;3.97;;
19879;SDS011;10102;50.828;4.416;2023-04-25T04:34:39;11.40;;;4.40;;
19879;SDS011;10102;50.828;4.416;2023-04-25T04:37:06;9.15;;;3.35;;
19879;SDS011;10102;50.828;4.416;2023-04-25T04:39:32;13.40;;;4.35;;
19879;SDS011;10102;50.828;4.416;2023-04-25T04:41:59;16.77;;;4.20;;
19879;SDS011;10102;50.828;4.416;2023-04-25T04:44:27;19.63;;;4.95;;
19879;SDS011;10102;50.828;4.416;2023-04-25T04:46:53;12.05;;;4.07;;
19879;SDS011;10102;50.828;4.416;2023-04-25T04:49:20;14.98;;;5.15;;
19879;SDS011;10102;50.828;4.416;2023-04-25T04:51:46;21.52;;;4.55;;
19879;SDS011;10102;50.828;4.416;2023-04-25T04:54:12;15.80;;;4.20;;
19879;SDS011;10102;50.828;4.416;2023-04-25T04:56:38;15.98;;;4.72;;
19879;SDS011;10102;50.828;4.416;2023-04-25T04:59:04;16.33;;;4.30;;
19879;SDS011;10102;50.828;4.416;2023-04-25T05:01:30;17.63;;;4.78;;
19879;SDS011;10102;50.828;4.416;2023-04-25T05:03:56;9.65;;;4.45;;
19879;SDS011;10102;50.828;4.416;2023-04-25T05:06:31;14.90;;;4.28;;
19879;SDS011;10102;50.828;4.416;2023-04-25T05:08:57;13.85;;;4.38;;
19879;SDS011;10102;50.828;4.416;2023-04-25T05:11:23;12.73;;;4.18;;
19879;SDS011;10102;50.828;4.416;2023-04-25T05:13:51;14.15;;;4.45;;
19879;SDS011;10102;50.828;4.416;2023-04-25T05:16:17;11.85;;;4.30;;
19879;SDS011;10102;50.828;4.416;2023-04-25T05:18:43;20.38;;;5.22;;
19879;SDS011;10102;50.828;4.416;2023-04-25T05:21:10;17.63;;;5.50;;
19879;SDS011;10102;50.828;4.416;2023-04-25T05:23:36;20.15;;;5.10;;
19879;SDS011;10102;50.828;4.416;2023-04-25T05:26:02;16.25;;;5.78;;
19879;SDS011;10102;50.828;4.416;2023-04-25T05:28:27;19.75;;;7.38;;
19879;SDS011;10102;50.828;4.416;2023-04-25T05:30:53;21.38;;;5.18;;
19879;SDS011;10102;50.828;4.416;2023-04-25T05:33:19;14.95;;;5.18;;
19879;SDS011;10102;50.828;4.416;2023-04-25T05:35:45;16.27;;;4.75;;
19879;SDS011;10102;50.828;4.416;2023-04-25T05:38:11;12.88;;;3.53;;
19879;SDS011;10102;50.828;4.416;2023-04-25T05:40:37;13.13;;;3.78;;
19879;SDS011;10102;50.828;4.416;2023-04-25T05:43:03;12.48;;;3.55;;
19879;SDS011;10102;50.828;4.416;2023-04-25T05:45:29;17.52;;;3.60;;
19879;SDS011;10102;50.828;4.416;2023-04-25T05:47:54;14.35;;;4.63;;
19879;SDS011;10102;50.828;4.416;2023-04-25T05:50:20;8.30;;;3.40;;
19879;SDS011;10102;50.828;4.416;2023-04-25T05:52:46;12.40;;;3.70;;
19879;SDS011;10102;50.828;4.416;2023-04-25T05:55:12;19.77;;;4.10;;
19879;SDS011;10102;50.828;4.416;2023-04-25T05:57:38;10.68;;;3.83;;
19879;SDS011;10102;50.828;4.416;2023-04-25T06:00:06;9.52;;;3.80;;
19879;SDS011;10102;50.828;4.416;2023-04-25T06:02:34;9.57;;;3.72;;
19879;SDS011;10102;50.828;4.416;2023-04-25T06:05:00;13.25;;;3.80;;
19879;SDS011;10102;50.828;4.416;2023-04-25T06:07:28;18.13;;;4.72;;
19879;SDS011;10102;50.828;4.416;2023-04-25T06:09:55;16.80;;;4.25;;
19879;SDS011;10102;50.828;4.416;2023-04-25T06:12:21;12.55;;;3.88;;
19879;SDS011;10102;50.828;4.416;2023-04-25T06:14:46;16.00;;;3.88;;
19879;SDS011;10102;50.828;4.416;2023-04-25T06:17:13;16.27;;;4.22;;
19879;SDS011;10102;50.828;4.416;2023-04-25T06:19:38;16.35;;;4.30;;
19879;SDS011;10102;50.828;4.416;2023-04-25T06:22:04;9.93;;;3.80;;
19879;SDS011;10102;50.828;4.416;2023-04-25T06:24:30;16.90;;;5.30;;
19879;SDS011;10102;50.828;4.416;2023-04-25T06:26:55;13.52;;;4.82;;
19879;SDS011;10102;50.828;4.416;2023-04-25T06:29:21;16.60;;;5.30;;
19879;SDS011;10102;50.828;4.416;2023-04-25T06:31:47;23.17;;;5.05;;
19879;SDS011;10102;50.828;4.416;2023-04-25T06:34:13;21.83;;;5.43;;
19879;SDS011;10102;50.828;4.416;2023-04-25T06:36:40;23.33;;;5.82;;
19879;SDS011;10102;50.828;4.416;2023-04-25T06:39:06;17.65;;;5.15;;
19879;SDS011;10102;50.828;4.416;2023-04-25T06:41:32;18.25;;;5.60;;
19879;SDS011;10102;50.828;4.416;2023-04-25T06:43:58;15.60;;;5.40;;
19879;SDS011;10102;50.828;4.416;2023-04-25T06:46:24;14.57;;;5.15;;
19879;SDS011;10102;50.828;4.416;2023-04-25T06:48:50;22.80;;;6.40;;
19879;SDS011;10102;50.828;4.416;2023-04-25T06:51:16;16.35;;;4.95;;
19879;SDS011;10102;50.828;4.416;2023-04-25T06:53:42;13.43;;;5.35;;
19879;SDS011;10102;50.828;4.416;2023-04-25T06:56:07;22.50;;;7.30;;
19879;SDS011;10102;50.828;4.416;2023-04-25T06:58:33;15.73;;;4.55;;
19879;SDS011;10102;50.828;4.416;2023-04-25T07:00:59;18.08;;;5.10;;
19879;SDS011;10102;50.828;4.416;2023-04-25T07:03:25;10.73;;;3.83;;
19879;SDS011;10102;50.828;4.416;2023-04-25T07:05:51;10.90;;;4.18;;
19879;SDS011;10102;50.828;4.416;2023-04-25T07:08:17;12.52;;;4.47;;
19879;SDS011;10102;50.828;4.416;2023-04-25T07:10:43;11.13;;;4.63;;
19879;SDS011;10102;50.828;4.416;2023-04-25T07:13:08;15.27;;;4.22;;
19879;SDS011;10102;50.828;4.416;2023-04-25T07:15:35;16.23;;;4.00;;
19879;SDS011;10102;50.828;4.416;2023-04-25T07:18:00;10.25;;;3.90;;
19879;SDS011;10102;50.828;4.416;2023-04-25T07:20:26;12.18;;;3.78;;
19879;SDS011;10102;50.828;4.416;2023-04-25T07:22:52;19.52;;;4.43;;
19879;SDS011;10102;50.828;4.416;2023-04-25T07:25:18;11.77;;;3.70;;
19879;SDS011;10102;50.828;4.416;2023-04-25T07:27:44;18.33;;;3.63;;
19879;SDS011;10102;50.828;4.416;2023-04-25T07:30:10;22.27;;;3.92;;
19879;SDS011;10102;50.828;4.416;2023-04-25T07:32:37;15.38;;;3.58;;
19879;SDS011;10102;50.828;4.416;2023-04-25T07:35:03;8.07;;;3.20;;
19879;SDS011;10102;50.828;4.416;2023-04-25T07:37:29;13.55;;;3.10;;
19879;SDS011;10102;50.828;4.416;2023-04-25T07:39:55;13.05;;;3.88;;
19879;SDS011;10102;50.828;4.416;2023-04-25T07:42:21;11.57;;;2.92;;
19879;SDS011;10102;50.828;4.416;2023-04-25T07:44:47;16.33;;;3.63;;
19879;SDS011;10102;50.828;4.416;2023-04-25T07:47:13;12.23;;;3.38;;
19879;SDS011;10102;50.828;4.416;2023-04-25T07:49:38;9.80;;;2.78;;
19879;SDS011;10102;50.828;4.416;2023-04-25T07:52:05;10.52;;;3.03;;
19879;SDS011;10102;50.828;4.416;2023-04-25T07:54:31;10.55;;;3.83;;
19879;SDS011;10102;50.828;4.416;2023-04-25T07:56:57;11.57;;;2.92;;
19879;SDS011;10102;50.828;4.416;2023-04-25T07:59:23;14.38;;;3.42;;
19879;SDS011;10102;50.828;4.416;2023-04-25T08:01:50;13.05;;;3.28;;
19879;SDS011;10102;50.828;4.416;2023-04-25T08:04:16;12.02;;;2.63;;
19879;SDS011;10102;50.828;4.416;2023-04-25T08:06:42;9.73;;;3.40;;
19879;SDS011;10102;50.828;4.416;2023-04-25T08:09:08;19.40;;;3.47;;
19879;SDS011;10102;50.828;4.416;2023-04-25T08:11:37;15.73;;;3.30;;
19879;SDS011;10102;50.828;4.416;2023-04-25T08:14:02;7.32;;;2.58;;
19879;SDS011;10102;50.828;4.416;2023-04-25T08:16:28;14.27;;;3.10;;
19879;SDS011;10102;50.828;4.416;2023-04-25T08:18:54;10.73;;;3.33;;
19879;SDS011;10102;50.828;4.416;2023-04-25T08:21:20;16.25;;;3.60;;
19879;SDS011;10102;50.828;4.416;2023-04-25T08:23:46;11.45;;;3.05;;
19879;SDS011;10102;50.828;4.416;2023-04-25T08:26:11;12.40;;;3.20;;
19879;SDS011;10102;50.828;4.416;2023-04-25T08:28:37;10.15;;;3.08;;
19879;SDS011;10102;50.828;4.416;2023-04-25T08:31:03;16.30;;;3.20;;
19879;SDS011;10102;50.828;4.416;2023-04-25T08:33:29;11.73;;;3.55;;
19879;SDS011;10102;50.828;4.416;2023-04-25T08:35:55;9.23;;;3.42;;
19879;SDS011;10102;50.828;4.416;2023-04-25T08:38:21;10.00;;;2.85;;
19879;SDS011;10102;50.828;4.416;2023-04-25T08:40:48;11.55;;;3.08;;
19879;SDS011;10102;50.828;4.416;2023-04-25T08:43:18;10.55;;;3.35;;
19879;SDS011;10102;50.828;4.416;2023-04-25T08:45:45;9.60;;;2.88;;
19879;SDS011;10102;50.828;4.416;2023-04-25T08:48:12;11.25;;;2.83;;
19879;SDS011;10102;50.828;4.416;2023-04-25T08:50:49;17.58;;;3.13;;
19879;SDS011;10102;50.828;4.416;2023-04-25T08:53:17;15.95;;;2.75;;
19879;SDS011;10102;50.828;4.416;2023-04-25T08:55:50;16.52;;;3.08;;
19879;SDS011;10102;50.828;4.416;2023-04-25T08:58:18;10.77;;;2.65;;
19879;SDS011;10102;50.828;4.416;2023-04-25T09:00:45;13.68;;;2.75;;
19879;SDS011;10102;50.828;4.416;2023-04-25T09:03:12;8.52;;;3.00;;
19879;SDS011;10102;50.828;4.416;2023-04-25T09:05:38;9.20;;;2.85;;
19879;SDS011;10102;50.828;4.416;2023-04-25T09:08:05;16.73;;;3.17;;
19879;SDS011;10102;50.828;4.416;2023-04-25T09:10:32;9.55;;;2.97;;
19879;SDS011;10102;50.828;4.416;2023-04-25T09:13:08;8.70;;;2.60;;
19879;SDS011;10102;50.828;4.416;2023-04-25T09:15:50;12.27;;;2.70;;
19879;SDS011;10102;50.828;4.416;2023-04-25T09:18:30;6.45;;;2.50;;
19879;SDS011;10102;50.828;4.416;2023-04-25T09:21:06;10.77;;;2.53;;
19879;SDS011;10102;50.828;4.416;2023-04-25T09:26:06;10.25;;;2.50;;
19879;SDS011;10102;50.828;4.416;2023-04-25T09:28:33;8.73;;;2.72;;
19879;SDS011;10102;50.828;4.416;2023-04-25T09:31:00;13.13;;;2.60;;
19879;SDS011;10102;50.828;4.416;2023-04-25T09:33:30;5.43;;;1.80;;
19879;SDS011;10102;50.828;4.416;2023-04-25T09:36:04;10.18;;;2.30;;
19879;SDS011;10102;50.828;4.416;2023-04-25T09:38:32;5.82;;;1.65;;
19879;SDS011;10102;50.828;4.416;2023-04-25T09:41:06;8.23;;;2.05;;
19879;SDS011;10102;50.828;4.416;2023-04-25T09:43:33;7.32;;;2.00;;
19879;SDS011;10102;50.828;4.416;2023-04-25T09:45:58;7.40;;;2.60;;
19879;SDS011;10102;50.828;4.416;2023-04-25T09:48:25;5.72;;;2.33;;
19879;SDS011;10102;50.828;4.416;2023-04-25T09:51:08;5.95;;;2.17;;
19879;SDS011;10102;50.828;4.416;2023-04-25T09:53:46;8.55;;;2.25;;
19879;SDS011;10102;50.828;4.416;2023-04-25T09:56:15;5.72;;;1.92;;
19879;SDS011;10102;50.828;4.416;2023-04-25T09:58:41;15.63;;;2.80;;
19879;SDS011;10102;50.828;4.416;2023-04-25T10:01:08;7.30;;;2.08;;
19879;SDS011;10102;50.828;4.416;2023-04-25T10:03:35;8.20;;;2.60;;
19879;SDS011;10102;50.828;4.416;2023-04-25T10:06:04;9.48;;;2.17;;
19879;SDS011;10102;50.828;4.416;2023-04-25T10:08:34;6.80;;;2.40;;
19879;SDS011;10102;50.828;4.416;2023-04-25T10:11:02;4.88;;;2.08;;
19879;SDS011;10102;50.828;4.416;2023-04-25T10:13:33;11.43;;;2.05;;
19879;SDS011;10102;50.828;4.416;2023-04-25T10:16:01;4.60;;;1.90;;
19879;SDS011;10102;50.828;4.416;2023-04-25T10:18:29;6.35;;;1.98;;
19879;SDS011;10102;50.828;4.416;2023-04-25T10:20:59;5.05;;;2.08;;
19879;SDS011;10102;50.828;4.416;2023-04-25T10:23:26;11.13;;;2.13;;
19879;SDS011;10102;50.828;4.416;2023-04-25T10:25:54;10.50;;;2.08;;
19879;SDS011;10102;50.828;4.416;2023-04-25T10:28:20;8.05;;;1.90;;
19879;SDS011;10102;50.828;4.416;2023-04-25T10:31:02;8.95;;;2.10;;
19879;SDS011;10102;50.828;4.416;2023-04-25T10:33:38;7.07;;;1.58;;
19879;SDS011;10102;50.828;4.416;2023-04-25T10:36:13;6.57;;;2.05;;
19879;SDS011;10102;50.828;4.416;2023-04-25T10:38:42;5.55;;;1.73;;
19879;SDS011;10102;50.828;4.416;2023-04-25T10:41:09;9.85;;;1.40;;
19879;SDS011;10102;50.828;4.416;2023-04-25T10:43:39;6.50;;;1.83;;
19879;SDS011;10102;50.828;4.416;2023-04-25T10:46:13;2.95;;;1.50;;
19879;SDS011;10102;50.828;4.416;2023-04-25T10:48:43;5.30;;;1.60;;
19879;SDS011;10102;50.828;4.416;2023-04-25T10:51:18;4.00;;;1.73;;
19879;SDS011;10102;50.828;4.416;2023-04-25T10:53:45;6.20;;;1.85;;
19879;SDS011;10102;50.828;4.416;2023-04-25T10:56:16;4.18;;;1.65;;
19879;SDS011;10102;50.828;4.416;2023-04-25T10:58:44;3.17;;;1.25;;
19879;SDS011;10102;50.828;4.416;2023-04-25T11:01:11;5.57;;;1.85;;
19879;SDS011;10102;50.828;4.416;2023-04-25T11:03:40;4.93;;;1.45;;
19879;SDS011;10102;50.828;4.416;2023-04-25T11:06:23;11.32;;;1.90;;
19879;SDS011;10102;50.828;4.416;2023-04-25T11:08:54;7.85;;;1.50;;
19879;SDS011;10102;50.828;4.416;2023-04-25T11:11:20;4.20;;;1.70;;
19879;SDS011;10102;50.828;4.416;2023-04-25T11:13:49;8.65;;;1.83;;
19879;SDS011;10102;50.828;4.416;2023-04-25T11:16:15;10.13;;;1.55;;
19879;SDS011;10102;50.828;4.416;2023-04-25T11:18:42;9.85;;;1.92;;
19879;SDS011;10102;50.828;4.416;2023-04-25T11:21:08;7.63;;;2.05;;
19879;SDS011;10102;50.828;4.416;2023-04-25T11:23:35;9.02;;;2.00;;
19879;SDS011;10102;50.828;4.416;2023-04-25T11:26:02;4.03;;;1.75;;
19879;SDS011;10102;50.828;4.416;2023-04-25T11:28:28;8.57;;;1.90;;
19879;SDS011;10102;50.828;4.416;2023-04-25T11:30:55;6.35;;;1.70;;
19879;SDS011;10102;50.828;4.416;2023-04-25T11:33:24;8.55;;;1.98;;
19879;SDS011;10102;50.828;4.416;2023-04-25T11:35:55;14.73;;;2.42;;
19879;SDS011;10102;50.828;4.416;2023-04-25T11:38:25;6.57;;;1.70;;
19879;SDS011;10102;50.828;4.416;2023-04-25T11:40:54;7.00;;;1.65;;
19879;SDS011;10102;50.828;4.416;2023-04-25T11:43:20;6.18;;;1.73;;
19879;SDS011;10102;50.828;4.416;2023-04-25T11:45:50;6.93;;;1.75;;
19879;SDS011;10102;50.828;4.416;2023-04-25T11:48:17;5.80;;;1.45;;
19879;SDS011;10102;50.828;4.416;2023-04-25T11:50:43;7.20;;;1.73;;
19879;SDS011;10102;50.828;4.416;2023-04-25T11:53:09;8.13;;;2.03;;
19879;SDS011;10102;50.828;4.416;2023-04-25T11:55:35;11.85;;;2.00;;
19879;SDS011;10102;50.828;4.416;2023-04-25T11:58:02;4.43;;;1.63;;
19879;SDS011;10102;50.828;4.416;2023-04-25T12:00:30;5.22;;;1.52;;
19879;SDS011;10102;50.828;4.416;2023-04-25T12:02:56;11.40;;;1.80;;
19879;SDS011;10102;50.828;4.416;2023-04-25T12:05:27;2.80;;;1.13;;
19879;SDS011;10102;50.828;4.416;2023-04-25T12:07:54;10.75;;;1.80;;
19879;SDS011;10102;50.828;4.416;2023-04-25T12:10:21;8.50;;;1.80;;
19879;SDS011;10102;50.828;4.416;2023-04-25T12:12:47;3.65;;;1.23;;
19879;SDS011;10102;50.828;4.416;2023-04-25T12:15:14;6.68;;;1.50;;
19879;SDS011;10102;50.828;4.416;2023-04-25T12:17:44;6.05;;;1.17;;
19879;SDS011;10102;50.828;4.416;2023-04-25T12:20:18;3.83;;;0.93;;
19879;SDS011;10102;50.828;4.416;2023-04-25T12:22:46;3.88;;;1.50;;
19879;SDS011;10102;50.828;4.416;2023-04-25T12:25:34;5.15;;;1.40;;
19879;SDS011;10102;50.828;4.416;2023-04-25T12:28:10;5.80;;;1.23;;
19879;SDS011;10102;50.828;4.416;2023-04-25T12:33:26;5.40;;;1.15;;
19879;SDS011;10102;50.828;4.416;2023-04-25T12:35:54;2.40;;;1.50;;
19879;SDS011;10102;50.828;4.416;2023-04-25T12:38:27;2.83;;;1.48;;
19879;SDS011;10102;50.828;4.416;2023-04-25T12:40:55;4.15;;;2.20;;
19879;SDS011;10102;50.828;4.416;2023-04-25T12:43:21;3.42;;;1.38;;
19879;SDS011;10102;50.828;4.416;2023-04-25T12:45:51;3.72;;;1.20;;
19879;SDS011;10102;50.828;4.416;2023-04-25T12:48:18;2.58;;;1.02;;
19879;SDS011;10102;50.828;4.416;2023-04-25T12:50:44;7.03;;;1.50;;
19879;SDS011;10102;50.828;4.416;2023-04-25T12:53:10;6.38;;;1.50;;
19879;SDS011;10102;50.828;4.416;2023-04-25T12:55:36;2.90;;;0.85;;
19879;SDS011;10102;50.828;4.416;2023-04-25T12:58:02;2.83;;;1.25;;
19879;SDS011;10102;50.828;4.416;2023-04-25T13:00:28;4.50;;;1.30;;
19879;SDS011;10102;50.828;4.416;2023-04-25T13:02:57;3.40;;;1.17;;
19879;SDS011;10102;50.828;4.416;2023-04-25T13:05:22;4.93;;;1.38;;
19879;SDS011;10102;50.828;4.416;2023-04-25T13:07:48;6.13;;;1.50;;
19879;SDS011;10102;50.828;4.416;2023-04-25T13:10:14;3.50;;;1.40;;
19879;SDS011;10102;50.828;4.416;2023-04-25T13:12:46;7.30;;;1.45;;
19879;SDS011;10102;50.828;4.416;2023-04-25T13:15:12;4.97;;;2.33;;
19879;SDS011;10102;50.828;4.416;2023-04-25T13:17:41;8.10;;;1.77;;
19879;SDS011;10102;50.828;4.416;2023-04-25T13:20:08;7.45;;;1.75;;
19879;SDS011;10102;50.828;4.416;2023-04-25T13:22:38;2.97;;;1.30;;
19879;SDS011;10102;50.828;4.416;2023-04-25T13:25:05;3.17;;;1.92;;
19879;SDS011;10102;50.828;4.416;2023-04-25T13:27:38;6.00;;;1.38;;
19879;SDS011;10102;50.828;4.416;2023-04-25T13:30:06;4.43;;;1.40;;
19879;SDS011;10102;50.828;4.416;2023-04-25T13:32:36;7.60;;;1.50;;
19879;SDS011;10102;50.828;4.416;2023-04-25T13:35:06;4.90;;;1.27;;
19879;SDS011;10102;50.828;4.416;2023-04-25T13:37:35;3.53;;;1.35;;
19879;SDS011;10102;50.828;4.416;2023-04-25T13:40:02;2.40;;;1.10;;
19879;SDS011;10102;50.828;4.416;2023-04-25T13:42:30;5.65;;;1.00;;
19879;SDS011;10102;50.828;4.416;2023-04-25T13:44:56;8.20;;;1.38;;
19879;SDS011;10102;50.828;4.416;2023-04-25T13:47:22;2.58;;;1.15;;
19879;SDS011;10102;50.828;4.416;2023-04-25T13:49:48;2.97;;;1.08;;
19879;SDS011;10102;50.828;4.416;2023-04-25T13:52:14;5.65;;;1.70;;
19879;SDS011;10102;50.828;4.416;2023-04-25T13:54:40;4.05;;;0.90;;
19879;SDS011;10102;50.828;4.416;2023-04-25T13:57:06;3.85;;;1.33;;
19879;SDS011;10102;50.828;4.416;2023-04-25T13:59:32;8.05;;;1.38;;
19879;SDS011;10102;50.828;4.416;2023-04-25T14:01:58;5.13;;;1.35;;
19879;SDS011;10102;50.828;4.416;2023-04-25T14:04:24;7.72;;;1.48;;
19879;SDS011;10102;50.828;4.416;2023-04-25T14:06:50;6.50;;;2.25;;
19879;SDS011;10102;50.828;4.416;2023-04-25T14:09:16;8.60;;;1.70;;
19879;SDS011;10102;50.828;4.416;2023-04-25T14:11:42;3.92;;;1.40;;
19879;SDS011;10102;50.828;4.416;2023-04-25T14:14:08;7.18;;;1.50;;
19879;SDS011;10102;50.828;4.416;2023-04-25T14:16:34;3.70;;;1.60;;
19879;SDS011;10102;50.828;4.416;2023-04-25T14:19:00;5.68;;;1.50;;
19879;SDS011;10102;50.828;4.416;2023-04-25T14:21:26;4.72;;;1.40;;
19879;SDS011;10102;50.828;4.416;2023-04-25T14:23:53;6.45;;;1.60;;
19879;SDS011;10102;50.828;4.416;2023-04-25T14:26:19;4.15;;;1.40;;
19879;SDS011;10102;50.828;4.416;2023-04-25T14:28:44;5.47;;;1.30;;
19879;SDS011;10102;50.828;4.416;2023-04-25T14:31:10;5.95;;;1.40;;
19879;SDS011;10102;50.828;4.416;2023-04-25T14:33:36;9.32;;;2.35;;
19879;SDS011;10102;50.828;4.416;2023-04-25T14:36:04;4.07;;;1.80;;
19879;SDS011;10102;50.828;4.416;2023-04-25T14:38:30;3.88;;;1.38;;
19879;SDS011;10102;50.828;4.416;2023-04-25T14:40:56;6.57;;;1.20;;
19879;SDS011;10102;50.828;4.416;2023-04-25T14:43:22;4.10;;;1.25;;